Time;durP1;ratioP1;P1;durP2;ratioP2;P2;SDS_P1;SDS_P2;PMS_P1;PMS_P2;Temp;Humidity;BMP_temperature;BMP_pressure;BME280_temperature;BME280_humidity;BME280_pressure;Samples;Min_cycle;Max_cycle;Signal;HPM_P1;HPM_P2
2022/03/11 00:00:42;;;;;;;0.90;0.90;;;4.50;99.90;;;;;;4992182;28;20201;-74
2022/03/11 00:03:08;;;;;;;0.83;0.83;;;4.50;99.90;;;;;;4993088;28;20267;-76
2022/03/11 00:05:33;;;;;;;0.90;0.90;;;4.50;99.90;;;;;;4993068;28;20193;-77
2022/03/11 00:07:58;;;;;;;0.80;0.80;;;4.40;99.90;;;;;;4993445;28;20177;-76
2022/03/11 00:10:24;;;;;;;0.70;0.70;;;4.30;99.90;;;;;;4992025;28;20207;-78
2022/03/11 00:12:50;;;;;;;0.80;0.80;;;4.20;99.90;;;;;;4992612;28;20525;-77
2022/03/11 00:15:16;;;;;;;0.70;0.70;;;4.30;99.90;;;;;;4992471;28;20208;-77
2022/03/11 00:17:42;;;;;;;0.80;0.80;;;4.40;99.90;;;;;;4992674;28;20178;-77
2022/03/11 00:20:07;;;;;;;0.80;0.80;;;4.50;99.90;;;;;;4992487;28;20204;-77
2022/03/11 00:22:36;;;;;;;0.80;0.80;;;4.30;99.90;;;;;;4992946;28;20600;-77
2022/03/11 00:25:02;;;;;;;0.80;0.80;;;4.40;99.90;;;;;;4992847;28;20181;-78
2022/03/11 00:27:28;;;;;;;0.80;0.80;;;4.30;99.90;;;;;;4992465;28;20173;-77
2022/03/11 00:29:53;;;;;;;0.80;0.80;;;4.20;99.90;;;;;;4991928;28;20201;-77
2022/03/11 00:32:19;;;;;;;0.80;0.80;;;4.20;99.90;;;;;;4992423;28;20181;-76
2022/03/11 00:34:45;;;;;;;0.80;0.80;;;3.90;99.90;;;;;;4992279;28;20216;-75
2022/03/11 00:37:10;;;;;;;0.80;0.80;;;3.90;99.90;;;;;;4991591;28;20220;-75
2022/03/11 00:39:36;;;;;;;0.80;0.80;;;3.80;99.90;;;;;;4990682;28;20304;-76
2022/03/11 00:42:01;;;;;;;0.80;0.80;;;3.40;99.90;;;;;;4991609;28;20185;-77
2022/03/11 00:44:27;;;;;;;0.80;0.80;;;3.20;99.90;;;;;;4991660;28;20181;-75
2022/03/11 00:46:53;;;;;;;0.80;0.80;;;2.90;1.00;;;;;;4991939;28;20181;-77
2022/03/11 00:49:18;;;;;;;0.80;0.80;;;3.00;1.00;;;;;;4991268;28;20191;-75
2022/03/11 00:51:44;;;;;;;0.87;0.87;;;3.10;1.00;;;;;;4991837;28;20183;-77
2022/03/11 00:54:10;;;;;;;0.77;0.77;;;3.20;1.00;;;;;;4991746;28;20247;-77
2022/03/11 00:56:35;;;;;;;0.80;0.80;;;3.20;1.00;;;;;;4991549;28;20589;-75
2022/03/11 00:59:01;;;;;;;0.80;0.80;;;3.40;1.00;;;;;;4991022;28;20219;-76
2022/03/11 01:01:26;;;;;;;0.80;0.80;;;3.50;1.00;;;;;;4992022;28;20256;-77
2022/03/11 01:03:52;;;;;;;0.80;0.80;;;3.60;1.00;;;;;;4991748;28;20644;-74
2022/03/11 01:06:18;;;;;;;0.80;0.80;;;3.60;1.00;;;;;;4991846;28;20217;-76
2022/03/11 01:08:44;;;;;;;0.70;0.70;;;3.60;1.00;;;;;;4991567;28;20524;-78
2022/03/11 01:11:11;;;;;;;0.80;0.80;;;3.60;1.00;;;;;;4990706;28;20208;-76
2022/03/11 01:13:38;;;;;;;0.80;0.80;;;3.70;1.00;;;;;;4991078;28;20181;-78
2022/03/11 01:16:04;;;;;;;0.80;0.80;;;3.60;1.00;;;;;;4991955;28;20256;-77
2022/03/11 01:18:30;;;;;;;0.80;0.80;;;3.10;1.00;;;;;;4991496;28;20174;-78
2022/03/11 01:20:56;;;;;;;0.80;0.80;;;2.70;1.00;;;;;;4991255;28;20734;-79
2022/03/11 01:23:22;;;;;;;0.80;0.80;;;2.50;1.00;;;;;;4991557;28;20319;-76
2022/03/11 01:25:47;;;;;;;0.80;0.80;;;2.30;1.00;;;;;;4991599;28;20264;-74
2022/03/11 01:28:13;;;;;;;0.77;0.77;;;2.20;1.00;;;;;;4991859;28;20636;-74
2022/03/11 01:30:40;;;;;;;0.90;0.90;;;2.10;1.00;;;;;;4991706;28;20212;-76
2022/03/11 01:33:05;;;;;;;0.80;0.80;;;2.00;65.90;;;;;;4992012;28;20185;-76
2022/03/11 01:35:31;;;;;;;0.90;0.90;;;2.00;99.90;;;;;;4991751;28;20597;-78
2022/03/11 01:37:57;;;;;;;0.73;0.73;;;2.40;99.50;;;;;;4991716;28;20189;-77
2022/03/11 01:40:23;;;;;;;0.90;0.90;;;2.70;10.90;;;;;;4990992;28;20871;-78
2022/03/11 01:42:48;;;;;;;0.80;0.80;;;2.70;1.00;;;;;;4991239;28;20197;-75
2022/03/11 01:45:14;;;;;;;0.90;0.90;;;2.70;1.00;;;;;;4991463;28;20196;-75
2022/03/11 01:47:39;;;;;;;0.80;0.80;;;2.60;2.20;;;;;;4991468;28;20181;-79
2022/03/11 01:50:05;;;;;;;0.80;0.80;;;2.40;99.90;;;;;;4991002;28;20209;-76
2022/03/11 01:52:31;;;;;;;0.90;0.90;;;2.30;99.90;;;;;;4991453;28;20235;-74
2022/03/11 01:54:57;;;;;;;0.80;0.80;;;2.20;99.90;;;;;;4991266;28;20551;-77
2022/03/11 01:57:24;;;;;;;0.70;0.70;;;2.40;99.90;;;;;;4991159;28;20722;-76
2022/03/11 01:59:49;;;;;;;0.87;0.87;;;2.50;99.90;;;;;;4990849;28;20243;-76
2022/03/11 02:02:15;;;;;;;0.80;0.80;;;2.50;99.90;;;;;;4991047;28;20169;-78
2022/03/11 02:04:41;;;;;;;0.80;0.80;;;2.50;99.90;;;;;;4991138;28;20189;-75
2022/03/11 02:07:06;;;;;;;0.80;0.80;;;2.50;99.90;;;;;;4991141;28;20311;-75
2022/03/11 02:09:32;;;;;;;0.70;0.70;;;2.10;99.90;;;;;;4990635;28;20204;-75
2022/03/11 02:11:58;;;;;;;0.70;0.70;;;2.20;99.90;;;;;;4990974;28;20231;-77
2022/03/11 02:14:23;;;;;;;0.80;0.80;;;2.40;99.90;;;;;;4991179;28;20212;-76
2022/03/11 02:16:49;;;;;;;0.80;0.80;;;2.60;99.90;;;;;;4990973;28;20166;-75
2022/03/11 02:19:14;;;;;;;0.70;0.70;;;2.60;99.90;;;;;;4990670;28;20204;-76
2022/03/11 02:21:46;;;;;;;0.80;0.80;;;2.70;99.90;;;;;;4990908;28;20654;-78
2022/03/11 02:24:12;;;;;;;0.80;0.80;;;2.50;99.90;;;;;;4993274;28;20176;-76
2022/03/11 02:26:38;;;;;;;0.87;0.87;;;2.20;99.90;;;;;;4994949;28;20614;-75
2022/03/11 02:29:05;;;;;;;0.80;0.80;;;1.90;1.00;;;;;;4994109;28;20294;-75
2022/03/11 02:31:31;;;;;;;0.80;0.80;;;1.90;1.00;;;;;;4994548;28;20185;-75
2022/03/11 02:33:59;;;;;;;0.80;0.80;;;2.00;1.00;;;;;;4994283;28;20188;-75
2022/03/11 02:36:25;;;;;;;0.80;0.80;;;2.20;1.00;;;;;;4994503;28;20636;-76
2022/03/11 02:38:51;;;;;;;0.80;0.80;;;1.90;1.00;;;;;;4993869;28;20204;-76
2022/03/11 02:41:17;;;;;;;1.00;1.00;;;1.90;1.00;;;;;;4994205;28;20200;-76
2022/03/11 02:43:43;;;;;;;0.87;0.87;;;1.60;99.90;;;;;;4994312;28;20174;-77
2022/03/11 02:46:11;;;;;;;0.80;0.80;;;1.20;1.00;;;;;;4994167;28;20197;-76
2022/03/11 02:48:37;;;;;;;0.80;0.80;;;1.20;99.90;;;;;;4994443;28;20275;-78
2022/03/11 02:51:03;;;;;;;0.80;0.80;;;1.20;99.90;;;;;;4993528;28;20727;-77
2022/03/11 02:53:29;;;;;;;0.80;0.80;;;1.10;99.90;;;;;;4994103;28;20648;-77
2022/03/11 02:55:55;;;;;;;0.80;0.80;;;1.10;99.90;;;;;;4994086;28;20228;-75
2022/03/11 02:58:20;;;;;;;0.80;0.80;;;1.10;99.90;;;;;;4994233;28;20236;-75
2022/03/11 03:00:47;;;;;;;0.80;0.80;;;1.20;1.00;;;;;;4993691;28;20225;-75
2022/03/11 03:03:12;;;;;;;0.83;0.83;;;1.20;1.00;;;;;;4994092;28;20174;-76
2022/03/11 03:05:38;;;;;;;0.90;0.90;;;1.10;17.10;;;;;;4993961;28;20598;-76
2022/03/11 03:08:04;;;;;;;0.80;0.80;;;0.90;99.90;;;;;;4993924;28;20177;-77
2022/03/11 03:10:29;;;;;;;0.90;0.90;;;1.00;99.90;;;;;;4993356;28;20562;-73
2022/03/11 03:12:55;;;;;;;0.90;0.90;;;1.00;99.90;;;;;;4993718;28;20193;-76
2022/03/11 03:15:21;;;;;;;0.80;0.80;;;0.90;99.90;;;;;;4993806;28;20345;-79
2022/03/11 03:17:46;;;;;;;1.00;1.00;;;0.90;99.90;;;;;;4993746;28;20718;-76
2022/03/11 03:20:12;;;;;;;0.83;0.83;;;0.80;1.00;;;;;;4993363;28;20205;-75
2022/03/11 03:22:38;;;;;;;0.90;0.90;;;0.90;1.00;;;;;;4993666;28;20177;-76
2022/03/11 03:25:04;;;;;;;0.90;0.90;;;0.60;99.90;;;;;;4993876;28;20659;-77
2022/03/11 03:27:30;;;;;;;0.80;0.80;;;0.50;1.00;;;;;;4993989;28;20615;-77
2022/03/11 03:29:56;;;;;;;0.80;0.80;;;0.60;16.40;;;;;;4993828;28;20224;-78
2022/03/11 03:32:22;;;;;;;0.80;0.80;;;0.70;1.00;;;;;;4994760;28;20268;-78
2022/03/11 03:34:47;;;;;;;0.80;0.80;;;0.60;1.00;;;;;;4993298;28;20352;-76
2022/03/11 03:37:13;;;;;;;0.80;0.80;;;0.60;1.00;;;;;;4993435;28;20189;-77
2022/03/11 03:39:41;;;;;;;0.80;0.80;;;0.50;1.00;;;;;;4992918;28;20197;-79
2022/03/11 03:42:07;;;;;;;0.80;0.80;;;0.40;1.00;;;;;;4993439;28;20177;-78
2022/03/11 03:44:33;;;;;;;0.90;0.90;;;0.40;26.50;;;;;;4993031;28;20197;-76
2022/03/11 03:46:59;;;;;;;0.80;0.80;;;0.40;1.00;;;;;;4993090;28;20182;-75
2022/03/11 03:49:25;;;;;;;0.87;0.87;;;0.30;14.80;;;;;;4992649;28;20749;-76
2022/03/11 03:51:51;;;;;;;0.90;0.90;;;0.30;77.00;;;;;;4992774;28;20185;-76
2022/03/11 03:54:17;;;;;;;0.90;0.90;;;0.20;99.90;;;;;;4992709;28;20515;-75
2022/03/11 03:56:44;;;;;;;0.90;0.90;;;0.20;1.00;;;;;;4992984;28;20702;-74
2022/03/11 03:59:10;;;;;;;0.90;0.90;;;0.20;99.90;;;;;;4992481;28;20180;-75
2022/03/11 04:01:38;;;;;;;0.80;0.80;;;0.30;1.00;;;;;;4992608;28;20220;-75
2022/03/11 04:04:05;;;;;;;0.80;0.80;;;0.30;1.00;;;;;;4992589;28;20188;-75
2022/03/11 04:06:31;;;;;;;0.70;0.70;;;0.20;1.00;;;;;;4992544;28;20184;-76
2022/03/11 04:08:58;;;;;;;0.90;0.90;;;0.10;1.00;;;;;;4991990;28;20188;-74
2022/03/11 04:11:28;;;;;;;0.80;0.80;;;0.00;1.00;;;;;;4992871;28;20193;-74
2022/03/11 04:13:54;;;;;;;0.80;0.80;;;0.10;1.00;;;;;;4992657;28;20180;-74
2022/03/11 04:16:20;;;;;;;0.90;0.90;;;0.10;1.00;;;;;;4992504;28;20196;-73
2022/03/11 04:18:47;;;;;;;0.80;0.80;;;-0.10;1.00;;;;;;4992473;28;20181;-75
2022/03/11 04:21:13;;;;;;;0.80;0.80;;;-0.10;1.00;;;;;;4991736;28;20339;-75
2022/03/11 04:23:40;;;;;;;0.90;0.90;;;0.00;99.90;;;;;;4992353;28;20173;-74
2022/03/11 04:26:06;;;;;;;0.93;0.93;;;0.40;99.90;;;;;;4992425;28;20192;-74
2022/03/11 04:28:32;;;;;;;0.90;0.90;;;0.40;99.90;;;;;;4991964;28;20185;-74
2022/03/11 04:30:58;;;;;;;0.80;0.80;;;0.30;7.50;;;;;;4991623;28;20197;-74
2022/03/11 04:33:26;;;;;;;0.90;0.90;;;0.10;99.90;;;;;;4991755;28;20598;-73
2022/03/11 04:35:51;;;;;;;0.80;0.80;;;0.10;99.90;;;;;;4992087;28;20596;-74
2022/03/11 04:38:17;;;;;;;0.70;0.70;;;0.20;1.00;;;;;;4991642;28;20173;-74
2022/03/11 04:40:43;;;;;;;0.90;0.90;;;0.20;1.00;;;;;;4991486;28;20205;-74
2022/03/11 04:43:08;;;;;;;0.83;0.83;;;-0.10;99.90;;;;;;4992004;28;20192;-74
2022/03/11 04:45:34;;;;;;;0.80;0.80;;;-0.20;1.00;;;;;;4991704;28;20200;-74
2022/03/11 04:47:59;;;;;;;0.90;0.90;;;-0.30;1.00;;;;;;4991698;28;20185;-75
2022/03/11 04:50:25;;;;;;;0.90;0.90;;;-0.30;99.90;;;;;;4991399;28;20581;-74
2022/03/11 04:52:51;;;;;;;0.80;0.80;;;-0.10;1.00;;;;;;4991809;28;20185;-73
2022/03/11 04:55:17;;;;;;;0.90;0.90;;;-0.30;93.10;;;;;;4991707;28;20278;-74
2022/03/11 04:57:43;;;;;;;0.90;0.90;;;-0.30;99.90;;;;;;4991709;28;20188;-74
2022/03/11 05:00:09;;;;;;;0.90;0.90;;;-0.30;99.90;;;;;;4991095;28;20208;-74
2022/03/11 05:02:35;;;;;;;0.80;0.80;;;-0.40;99.90;;;;;;4991804;28;20204;-74
2022/03/11 05:05:07;;;;;;;0.80;0.80;;;-0.50;99.90;;;;;;4991762;28;20612;-74
2022/03/11 05:07:33;;;;;;;0.90;0.90;;;-0.50;99.90;;;;;;4990720;28;20316;-75
2022/03/11 05:09:59;;;;;;;0.90;0.90;;;-0.50;1.00;;;;;;4991488;28;20209;-74
2022/03/11 05:12:25;;;;;;;0.80;0.80;;;-0.50;1.00;;;;;;4991876;28;20254;-73
2022/03/11 05:14:52;;;;;;;0.83;0.83;;;-0.60;1.00;;;;;;5009007;28;20304;-73
2022/03/11 05:17:19;;;;;;;0.90;0.90;;;-0.70;1.00;;;;;;5007274;28;20193;-72
2022/03/11 05:19:45;;;;;;;0.87;0.87;;;-0.60;1.00;;;;;;4998332;28;20197;-75
2022/03/11 05:22:11;;;;;;;0.80;0.80;;;-0.60;1.00;;;;;;4997186;28;20639;-73
2022/03/11 05:24:38;;;;;;;0.90;0.90;;;-0.60;1.00;;;;;;4992260;28;20594;-76
2022/03/11 05:27:04;;;;;;;0.83;0.83;;;-0.70;1.00;;;;;;4992230;28;20205;-73
2022/03/11 05:29:34;;;;;;;0.80;0.80;;;-0.70;1.00;;;;;;4990853;28;20559;-73
2022/03/11 05:32:00;;;;;;;0.80;0.80;;;-0.70;1.00;;;;;;4991492;28;20621;-73
2022/03/11 05:34:26;;;;;;;0.90;0.90;;;-0.70;1.00;;;;;;4991642;28;20200;-72
2022/03/11 05:36:51;;;;;;;0.80;0.80;;;-0.40;99.90;;;;;;4991694;28;20187;-74
2022/03/11 05:39:17;;;;;;;0.90;0.90;;;-0.50;99.90;;;;;;4989617;28;20208;-75
2022/03/11 05:41:44;;;;;;;0.80;0.80;;;-0.50;99.90;;;;;;4991545;28;20235;-73
2022/03/11 05:44:10;;;;;;;0.90;0.90;;;-0.40;99.90;;;;;;4991675;28;20192;-74
2022/03/11 05:46:36;;;;;;;0.87;0.87;;;-0.50;47.70;;;;;;4991308;28;20193;-73
2022/03/11 05:49:01;;;;;;;0.90;0.90;;;-0.60;99.90;;;;;;4991075;28;20759;-72
2022/03/11 05:51:27;;;;;;;0.80;0.80;;;-0.70;99.90;;;;;;4991216;28;20232;-73
2022/03/11 05:53:53;;;;;;;0.80;0.80;;;-0.60;99.90;;;;;;4991576;28;20229;-74
2022/03/11 05:56:20;;;;;;;0.80;0.80;;;-0.60;22.60;;;;;;4990983;28;20299;-74
2022/03/11 05:58:46;;;;;;;0.80;0.80;;;-0.70;53.40;;;;;;4993060;28;20174;-74
2022/03/11 06:01:11;;;;;;;0.80;0.80;;;-0.60;35.90;;;;;;4994503;28;20675;-73
2022/03/11 06:03:37;;;;;;;0.87;0.87;;;-0.50;1.00;;;;;;4994792;28;20173;-73
2022/03/11 06:06:02;;;;;;;0.90;0.90;;;-0.10;1.00;;;;;;4994770;28;20204;-78
2022/03/11 06:08:28;;;;;;;0.80;0.80;;;0.10;1.00;;;;;;4995826;28;20177;-75
2022/03/11 06:10:53;;;;;;;0.80;0.80;;;-0.10;1.00;;;;;;4995134;28;20288;-75
2022/03/11 06:13:19;;;;;;;0.80;0.80;;;-0.20;1.00;;;;;;4995247;28;20659;-76
2022/03/11 06:15:45;;;;;;;0.87;0.87;;;-0.30;1.00;;;;;;4995369;28;20315;-73
2022/03/11 06:18:13;;;;;;;0.80;0.80;;;-0.20;1.00;;;;;;4995171;28;20181;-75
2022/03/11 06:20:39;;;;;;;0.80;0.80;;;-0.20;1.00;;;;;;4994315;28;20567;-72
2022/03/11 06:23:04;;;;;;;0.80;0.80;;;-0.10;1.00;;;;;;4995017;28;20173;-75
2022/03/11 06:25:30;;;;;;;0.87;0.87;;;0.00;1.00;;;;;;4994750;28;20180;-72
2022/03/11 06:27:55;;;;;;;0.90;0.90;;;0.10;1.00;;;;;;4994790;28;20181;-73
2022/03/11 06:30:21;;;;;;;0.80;0.80;;;0.20;1.00;;;;;;4993816;28;20686;-75
2022/03/11 06:32:48;;;;;;;0.70;0.70;;;0.40;1.00;;;;;;4994084;28;20420;-74
2022/03/11 06:35:15;;;;;;;0.80;0.80;;;0.50;1.00;;;;;;4994540;28;20779;-74
2022/03/11 06:37:42;;;;;;;0.80;0.80;;;0.80;1.00;;;;;;4994627;28;20260;-74
2022/03/11 06:40:08;;;;;;;0.83;0.83;;;1.00;1.00;;;;;;4993621;28;20193;-74
2022/03/11 06:42:41;;;;;;;0.83;0.83;;;0.90;1.00;;;;;;4994110;28;20264;-73
2022/03/11 06:45:08;;;;;;;0.80;0.80;;;0.90;1.00;;;;;;4994194;28;20728;-73
2022/03/11 06:47:34;;;;;;;0.73;0.73;;;0.90;1.00;;;;;;4994656;28;20230;-73
2022/03/11 06:50:00;;;;;;;0.90;0.90;;;1.10;1.00;;;;;;4993830;28;20201;-73
2022/03/11 06:52:26;;;;;;;0.70;0.70;;;1.30;1.00;;;;;;4994448;28;20181;-73
2022/03/11 06:54:52;;;;;;;0.80;0.80;;;2.20;1.00;;;;;;4994339;28;20236;-74
2022/03/11 06:57:17;;;;;;;0.83;0.83;;;1.90;1.00;;;;;;4993982;28;20284;-72
2022/03/11 06:59:44;;;;;;;0.80;0.80;;;2.60;1.00;;;;;;4993456;28;20224;-72
2022/03/11 07:02:09;;;;;;;0.73;0.73;;;3.20;1.00;;;;;;4993044;28;20184;-74
2022/03/11 07:04:35;;;;;;;0.80;0.80;;;2.90;1.00;;;;;;4994146;28;20181;-74
2022/03/11 07:07:01;;;;;;;0.70;0.70;;;3.50;1.00;;;;;;4994070;28;20179;-72
2022/03/11 07:09:26;;;;;;;0.87;0.87;;;5.10;1.00;;;;;;4992090;28;20197;-73
2022/03/11 07:11:57;;;;;;;0.70;0.70;;;6.00;1.00;;;;;;4993555;28;20181;-73
2022/03/11 07:14:26;;;;;;;0.70;0.70;;;6.00;1.00;;;;;;4993737;28;20197;-74
2022/03/11 07:16:52;;;;;;;0.63;0.63;;;6.20;1.00;;;;;;4993510;28;20182;-72
2022/03/11 07:19:19;;;;;;;0.60;0.60;;;6.10;1.00;;;;;;4993227;28;20169;-73
2022/03/11 07:21:44;;;;;;;0.50;0.50;;;7.20;1.00;;;;;;4993755;28;20605;-74
2022/03/11 07:24:10;;;;;;;0.60;0.60;;;6.60;1.00;;;;;;4993596;28;20239;-74
2022/03/11 07:26:36;;;;;;;0.60;0.60;;;7.70;1.00;;;;;;4993466;28;20182;-74
2022/03/11 07:29:02;;;;;;;0.60;0.60;;;7.20;1.00;;;;;;4993587;28;20181;-73
2022/03/11 07:31:28;;;;;;;0.60;0.60;;;8.10;1.00;;;;;;4993751;28;20181;-73
2022/03/11 07:33:54;;;;;;;0.70;0.70;;;8.40;1.00;;;;;;4993459;28;20239;-74
2022/03/11 07:36:20;;;;;;;0.60;0.60;;;7.30;1.00;;;;;;4991917;28;20328;-77
2022/03/11 07:38:45;;;;;;;0.50;0.50;;;7.80;1.00;;;;;;4993419;28;20303;-77
2022/03/11 07:41:12;;;;;;;0.50;0.50;;;7.00;1.00;;;;;;4993001;28;20197;-73
2022/03/11 07:43:41;;;;;;;0.57;0.57;;;7.20;1.00;;;;;;4993514;28;20228;-74
2022/03/11 07:46:08;;;;;;;0.50;0.50;;;8.00;1.00;;;;;;4992696;28;20197;-75
2022/03/11 07:48:33;;;;;;;0.40;0.40;;;8.00;1.00;;;;;;4992576;28;20539;-75
2022/03/11 07:50:59;;;;;;;0.50;0.50;;;8.10;1.00;;;;;;4991972;28;20201;-74
2022/03/11 07:53:25;;;;;;;0.50;0.50;;;9.50;1.00;;;;;;4992747;28;20180;-75
2022/03/11 07:55:50;;;;;;;0.53;0.53;;;8.90;1.00;;;;;;4992817;28;20680;-74
2022/03/11 07:58:17;;;;;;;0.57;0.57;;;8.80;1.00;;;;;;4994791;28;20215;-71
2022/03/11 08:00:42;;;;;;;0.53;0.53;;;8.50;1.00;;;;;;4992477;28;20205;-73
2022/03/11 08:03:08;;;;;;;0.50;0.50;;;8.20;1.00;;;;;;4992554;28;20181;-72
2022/03/11 08:05:33;;;;;;;0.40;0.40;;;9.50;1.00;;;;;;4992289;28;20177;-71
2022/03/11 08:07:59;;;;;;;0.50;0.50;;;10.00;1.00;;;;;;4992576;28;20195;-72
2022/03/11 08:10:25;;;;;;;0.40;0.40;;;10.00;1.00;;;;;;4991772;28;20200;-72
2022/03/11 08:12:53;;;;;;;0.50;0.50;;;10.00;1.00;;;;;;4992340;28;20513;-72
2022/03/11 08:15:18;;;;;;;0.40;0.40;;;8.70;1.00;;;;;;4992698;28;20224;-72
2022/03/11 08:17:44;;;;;;;0.50;0.50;;;9.00;1.00;;;;;;4992701;28;20173;-71
2022/03/11 08:20:10;;;;;;;0.60;0.60;;;9.90;1.00;;;;;;4994370;28;20207;-71
2022/03/11 08:22:37;;;;;;;0.50;0.50;;;8.80;1.00;;;;;;4992166;28;20235;-72
2022/03/11 08:25:03;;;;;;;0.50;0.50;;;8.60;1.00;;;;;;4992780;28;20181;-73
2022/03/11 08:27:29;;;;;;;0.50;0.50;;;9.50;1.00;;;;;;4991950;28;20264;-73
2022/03/11 08:29:54;;;;;;;0.30;0.30;;;10.60;1.00;;;;;;4991809;28;20239;-72
2022/03/11 08:32:20;;;;;;;0.40;0.40;;;9.80;1.00;;;;;;4992327;28;20200;-73
2022/03/11 08:34:45;;;;;;;0.30;0.30;;;10.20;1.00;;;;;;4992395;28;20251;-73
2022/03/11 08:37:11;;;;;;;0.40;0.40;;;10.60;1.00;;;;;;4991868;28;20656;-74
2022/03/11 08:39:36;;;;;;;0.40;0.40;;;10.90;1.00;;;;;;4991987;28;20201;-71
2022/03/11 08:42:02;;;;;;;0.30;0.30;;;11.50;1.00;;;;;;4991804;28;20184;-74
2022/03/11 08:44:28;;;;;;;0.40;0.40;;;11.20;1.00;;;;;;4991697;28;20184;-74
2022/03/11 08:46:53;;;;;;;0.40;0.40;;;11.20;1.00;;;;;;4991712;28;20173;-73
2022/03/11 08:49:19;;;;;;;0.40;0.40;;;10.30;1.00;;;;;;4991580;28;20550;-76
2022/03/11 08:51:44;;;;;;;0.40;0.40;;;9.50;1.00;;;;;;4992147;28;20542;-73
2022/03/11 08:54:10;;;;;;;0.40;0.40;;;10.40;1.00;;;;;;4991740;28;20189;-72
2022/03/11 08:56:35;;;;;;;0.40;0.40;;;10.50;1.00;;;;;;4992397;28;20662;-73
2022/03/11 08:59:01;;;;;;;0.43;0.43;;;11.00;1.00;;;;;;4991776;28;20177;-73
2022/03/11 09:01:27;;;;;;;0.40;0.40;;;11.50;1.00;;;;;;4991907;28;20188;-74
2022/03/11 09:03:52;;;;;;;0.40;0.40;;;10.00;1.00;;;;;;4992079;28;20204;-74
2022/03/11 09:06:18;;;;;;;0.30;0.30;;;10.80;1.00;;;;;;4991993;28;20188;-74
2022/03/11 09:08:44;;;;;;;0.33;0.33;;;11.50;1.00;;;;;;4992140;28;20182;-75
2022/03/11 09:11:10;;;;;;;0.40;0.40;;;10.60;1.00;;;;;;4988991;28;20204;-74
2022/03/11 09:13:36;;;;;;;0.50;0.50;;;10.60;1.00;;;;;;4991759;28;20184;-74
2022/03/11 09:16:03;;;;;;;0.40;0.40;;;11.20;1.00;;;;;;4991733;28;20213;-72
2022/03/11 09:18:29;;;;;;;0.30;0.30;;;12.10;1.00;;;;;;4991807;28;20678;-74
2022/03/11 09:20:55;;;;;;;0.30;0.30;;;13.00;1.00;;;;;;4991370;28;20232;-74
2022/03/11 09:23:21;;;;;;;0.30;0.30;;;11.40;1.00;;;;;;4989266;28;20197;-74
2022/03/11 09:25:47;;;;;;;0.30;0.30;;;11.70;1.00;;;;;;4991634;28;20193;-75
2022/03/11 09:28:12;;;;;;;0.30;0.30;;;12.20;1.00;;;;;;4992853;28;20200;-75
2022/03/11 09:30:38;;;;;;;0.40;0.40;;;12.20;1.00;;;;;;4991567;28;20694;-73
2022/03/11 09:33:03;;;;;;;0.50;0.50;;;11.80;1.00;;;;;;4992324;28;20570;-75
2022/03/11 09:35:29;;;;;;;0.30;0.30;;;11.70;1.00;;;;;;4993809;28;20220;-76
2022/03/11 09:37:55;;;;;;;0.30;0.30;;;11.30;1.00;;;;;;4995870;28;20183;-74
2022/03/11 09:40:20;;;;;;;0.40;0.40;;;12.10;1.00;;;;;;4995543;28;20283;-76
2022/03/11 09:42:46;;;;;;;0.30;0.30;;;12.10;1.00;;;;;;4995212;28;20590;-75
2022/03/11 09:45:12;;;;;;;0.40;0.40;;;11.70;1.00;;;;;;4995089;28;20196;-75
2022/03/11 09:47:39;;;;;;;0.37;0.37;;;12.00;1.00;;;;;;4995025;28;20743;-72
2022/03/11 09:50:05;;;;;;;0.33;0.33;;;12.70;1.00;;;;;;4994273;28;20280;-76
2022/03/11 09:52:33;;;;;;;0.40;0.40;;;12.90;1.00;;;;;;4994559;28;20207;-76
2022/03/11 09:54:59;;;;;;;0.40;0.40;;;12.70;1.00;;;;;;4995200;28;20261;-75
2022/03/11 09:57:27;;;;;;;0.30;0.30;;;12.00;1.00;;;;;;4995197;28;20216;-76
2022/03/11 09:59:52;;;;;;;0.40;0.40;;;11.80;1.00;;;;;;4995044;28;20619;-76
2022/03/11 10:02:18;;;;;;;0.33;0.33;;;12.20;1.00;;;;;;4995650;28;20178;-76
2022/03/11 10:04:52;;;;;;;0.40;0.40;;;11.70;1.00;;;;;;4995441;28;20204;-74
2022/03/11 10:07:29;;;;;;;0.30;0.30;;;11.60;1.00;;;;;;4996111;28;20274;-75
2022/03/11 10:09:56;;;;;;;0.30;0.30;;;12.10;1.00;;;;;;4995216;28;20249;-75
2022/03/11 10:12:29;;;;;;;0.20;0.20;;;13.90;1.00;;;;;;4996021;28;20182;-76
2022/03/11 10:15:00;;;;;;;0.20;0.20;;;14.70;1.00;;;;;;4995276;28;20221;-76
2022/03/11 10:17:27;;;;;;;0.20;0.20;;;13.90;1.00;;;;;;4995084;28;20679;-75
2022/03/11 10:20:03;;;;;;;0.40;0.40;;;12.10;1.00;;;;;;4994796;28;20711;-74
2022/03/11 10:22:30;;;;;;;0.40;0.40;;;13.90;1.00;;;;;;4995402;28;20268;-76
2022/03/11 10:24:56;;;;;;;0.30;0.30;;;14.20;1.00;;;;;;4994579;28;20209;-74
2022/03/11 10:27:25;;;;;;;0.30;0.30;;;14.20;1.00;;;;;;4995345;28;20197;-76
2022/03/11 10:29:51;;;;;;;0.40;0.40;;;14.60;1.00;;;;;;4994559;28;20276;-73
2022/03/11 10:32:25;;;;;;;0.30;0.30;;;14.70;1.00;;;;;;4995516;28;20248;-73
2022/03/11 10:34:51;;;;;;;0.30;0.30;;;14.80;1.00;;;;;;4994752;28;20201;-73
2022/03/11 10:37:17;;;;;;;0.40;0.40;;;14.00;1.00;;;;;;4995068;28;20466;-75
2022/03/11 10:39:45;;;;;;;0.20;0.20;;;14.60;1.00;;;;;;4994301;28;20197;-74
2022/03/11 10:42:19;;;;;;;0.30;0.30;;;15.90;1.00;;;;;;4994544;28;20211;-77
2022/03/11 10:44:57;;;;;;;0.40;0.40;;;15.50;1.00;;;;;;4994561;28;20198;-75
2022/03/11 10:47:23;;;;;;;0.30;0.30;;;15.50;1.00;;;;;;4994792;28;20180;-73
2022/03/11 10:49:53;;;;;;;0.30;0.30;;;15.50;1.00;;;;;;4993998;28;20247;-76
2022/03/11 10:52:32;;;;;;;0.30;0.30;;;15.20;1.00;;;;;;4994421;28;20230;-75
2022/03/11 10:54:59;;;;;;;0.30;0.30;;;14.90;1.00;;;;;;4996073;28;20316;-74
2022/03/11 10:57:38;;;;;;;0.30;0.30;;;14.70;1.00;;;;;;4994031;28;20181;-76
2022/03/11 11:00:19;;;;;;;0.30;0.30;;;14.70;1.00;;;;;;4993740;28;20653;-75
2022/03/11 11:02:46;;;;;;;0.30;0.30;;;15.30;1.00;;;;;;4994101;28;20177;-76
2022/03/11 11:05:15;;;;;;;0.30;0.30;;;15.40;1.00;;;;;;4993964;28;20184;-75
2022/03/11 11:07:41;;;;;;;0.30;0.30;;;15.60;1.00;;;;;;4994873;28;20212;-78
2022/03/11 11:10:08;;;;;;;0.40;0.40;;;15.20;1.00;;;;;;4993736;28;20235;-76
2022/03/11 11:12:34;;;;;;;0.30;0.30;;;16.30;1.00;;;;;;4993794;28;20727;-74
2022/03/11 11:15:02;;;;;;;0.30;0.30;;;17.30;1.00;;;;;;4994275;28;20259;-74
2022/03/11 11:17:29;;;;;;;0.30;0.30;;;17.70;1.00;;;;;;4994702;28;20204;-77
2022/03/11 11:19:57;;;;;;;0.30;0.30;;;17.50;1.00;;;;;;4994046;28;20247;-76
2022/03/11 11:22:26;;;;;;;0.30;0.30;;;17.10;1.00;;;;;;4994059;28;20220;-75
2022/03/11 11:24:56;;;;;;;0.30;0.30;;;15.90;1.00;;;;;;4994186;28;20192;-77
2022/03/11 11:27:22;;;;;;;0.30;0.30;;;16.90;1.00;;;;;;4994191;28;20697;-74
2022/03/11 11:29:49;;;;;;;0.30;0.30;;;16.40;1.00;;;;;;4993980;28;20272;-74
2022/03/11 11:32:19;;;;;;;0.30;0.30;;;16.60;1.00;;;;;;4993762;28;20192;-78
2022/03/11 11:34:44;;;;;;;0.30;0.30;;;18.00;1.00;;;;;;4993697;28;20224;-78
2022/03/11 11:37:35;;;;;;;0.30;0.30;;;19.10;1.00;;;;;;4994217;28;20178;-74
2022/03/11 11:40:17;;;;;;;0.30;0.30;;;18.80;1.00;;;;;;4993658;28;20189;-73
2022/03/11 11:43:12;;;;;;;0.30;0.30;;;17.80;1.00;;;;;;4993352;28;20184;-77
2022/03/11 11:45:40;;;;;;;0.20;0.20;;;19.00;1.00;;;;;;4993653;28;20185;-75
2022/03/11 11:48:06;;;;;;;0.30;0.30;;;18.50;1.00;;;;;;4993556;28;20191;-74
2022/03/11 11:50:44;;;;;;;0.40;0.40;;;19.00;1.00;;;;;;4992899;28;20570;-73
2022/03/11 11:53:09;;;;;;;0.27;0.27;;;18.30;1.00;;;;;;4993322;28;20188;-74
2022/03/11 11:55:40;;;;;;;0.30;0.30;;;19.00;1.00;;;;;;4992810;28;20217;-74
2022/03/11 11:58:22;;;;;;;0.30;0.30;;;19.50;1.00;;;;;;4994113;28;20656;-74
2022/03/11 12:00:54;;;;;;;0.30;0.30;;;19.20;1.00;;;;;;4992828;28;20200;-75
2022/03/11 12:03:20;;;;;;;0.30;0.30;;;19.40;1.00;;;;;;4993077;28;20181;-77
2022/03/11 12:05:49;;;;;;;0.30;0.30;;;19.70;1.00;;;;;;4993837;28;20532;-75
2022/03/11 12:08:33;;;;;;;0.30;0.30;;;18.90;1.00;;;;;;4993897;28;20735;-74
2022/03/11 12:10:59;;;;;;;0.23;0.23;;;19.50;1.00;;;;;;4993342;28;20538;-73
2022/03/11 12:13:32;;;;;;;0.20;0.20;;;19.70;1.00;;;;;;4992786;28;20173;-73
2022/03/11 12:15:59;;;;;;;0.30;0.30;;;20.00;1.00;;;;;;4991290;28;20300;-76
2022/03/11 12:18:41;;;;;;;0.30;0.30;;;20.70;1.00;;;;;;4997213;28;20188;-78
2022/03/11 12:21:08;;;;;;;0.30;0.30;;;19.50;1.00;;;;;;4989559;28;20197;-73
2022/03/11 12:23:36;;;;;;;0.30;0.30;;;20.00;1.00;;;;;;4992210;28;20188;-74
2022/03/11 12:26:09;;;;;;;0.30;0.30;;;20.50;1.00;;;;;;4995656;28;20639;-74
2022/03/11 12:28:39;;;;;;;0.30;0.30;;;20.60;1.00;;;;;;4992393;28;20235;-75
2022/03/11 12:31:19;;;;;;;0.30;0.30;;;20.50;1.00;;;;;;4992300;28;20569;-74
2022/03/11 12:33:47;;;;;;;0.33;0.33;;;20.50;1.00;;;;;;4992629;28;20185;-75
2022/03/11 12:36:21;;;;;;;0.30;0.30;;;21.10;1.00;;;;;;4992275;28;20275;-73
2022/03/11 12:38:48;;;;;;;0.30;0.30;;;20.90;1.00;;;;;;4998198;28;20177;-75
2022/03/11 12:41:28;;;;;;;0.30;0.30;;;20.50;1.00;;;;;;5011727;28;20433;-74
2022/03/11 12:43:57;;;;;;;0.30;0.30;;;20.30;1.00;;;;;;5012162;28;20176;-73
2022/03/11 12:46:23;;;;;;;0.20;0.20;;;20.70;1.00;;;;;;5011778;28;20261;-74
2022/03/11 12:48:48;;;;;;;0.30;0.30;;;21.50;1.00;;;;;;5011532;28;20185;-78
2022/03/11 12:51:19;;;;;;;0.20;0.20;;;21.60;1.00;;;;;;5010967;28;20197;-74
2022/03/11 12:53:50;;;;;;;0.30;0.30;;;21.20;1.00;;;;;;5012063;28;20177;-74
2022/03/11 12:56:17;;;;;;;0.30;0.30;;;21.40;1.00;;;;;;5012127;28;20643;-74
2022/03/11 12:58:43;;;;;;;0.30;0.30;;;22.00;1.00;;;;;;5011907;28;20255;-74